Time;durP1;ratioP1;P1;durP2;ratioP2;P2;SDS_P1;SDS_P2;PMS_P1;PMS_P2;Temp;Humidity;BMP_temperature;BMP_pressure;BME280_temperature;BME280_humidity;BME280_pressure;Samples;Min_cycle;Max_cycle;Signal;HPM_P1;HPM_P2
2023/05/08 00:00:12;;;;;;;1.27;0.93;;;15.20;99.90;;;;;;5030455;28;20287;-66
2023/05/08 00:02:42;;;;;;;1.15;1.05;;;15.30;99.90;;;;;;5018576;28;20205;-65
2023/05/08 00:05:10;;;;;;;1.23;1.10;;;15.30;99.90;;;;;;5022181;28;20288;-65
2023/05/08 00:07:38;;;;;;;0.70;0.70;;;15.20;99.90;;;;;;5027722;28;20246;-65
2023/05/08 00:10:08;;;;;;;1.23;1.13;;;15.30;99.90;;;;;;5032655;28;20201;-65
2023/05/08 00:12:36;;;;;;;1.42;1.33;;;15.40;99.90;;;;;;5025598;28;20233;-65
2023/05/08 00:15:05;;;;;;;1.00;0.70;;;15.40;99.90;;;;;;5026678;28;20237;-65
2023/05/08 00:17:33;;;;;;;1.80;1.20;;;15.30;99.90;;;;;;5022004;28;20320;-64
2023/05/08 00:20:02;;;;;;;0.90;0.90;;;15.30;99.90;;;;;;5019226;28;20205;-65
2023/05/08 00:22:30;;;;;;;1.50;1.40;;;15.30;99.90;;;;;;5028756;28;20711;-65
2023/05/08 00:24:58;;;;;;;2.30;1.48;;;15.20;99.90;;;;;;5019636;28;20221;-65
2023/05/08 00:27:26;;;;;;;1.92;1.83;;;15.10;99.90;;;;;;5035203;28;20728;-65
2023/05/08 00:29:54;;;;;;;0.90;0.90;;;15.10;99.90;;;;;;5051423;28;20366;-64
2023/05/08 00:32:21;;;;;;;1.30;1.20;;;15.00;99.90;;;;;;5053670;28;20290;-66
2023/05/08 00:34:50;;;;;;;2.10;0.90;;;15.10;99.90;;;;;;5053647;28;20261;-66
2023/05/08 00:37:19;;;;;;;0.93;0.90;;;15.00;99.90;;;;;;5029948;28;20234;-66
2023/05/08 00:39:47;;;;;;;0.80;0.80;;;15.00;99.90;;;;;;5163070;22;20271;-70
2023/05/08 00:42:15;;;;;;;1.48;1.38;;;15.00;99.90;;;;;;5072288;28;20223;-70
2023/05/08 00:44:43;;;;;;;1.05;0.98;;;15.00;99.90;;;;;;5070441;28;20261;-69
2023/05/08 00:47:10;;;;;;;1.02;1.02;;;15.10;99.90;;;;;;5068723;28;20274;-69
2023/05/08 00:49:38;;;;;;;0.63;0.60;;;15.10;99.90;;;;;;5056786;28;20234;-70
2023/05/08 00:52:07;;;;;;;0.90;0.82;;;14.90;99.90;;;;;;5050577;28;20230;-69
2023/05/08 00:54:38;;;;;;;1.00;0.90;;;14.90;99.90;;;;;;5048862;28;20261;-69
2023/05/08 00:57:06;;;;;;;2.10;1.88;;;14.90;99.90;;;;;;5051336;28;20302;-69
2023/05/08 00:59:35;;;;;;;1.27;1.10;;;14.90;99.90;;;;;;5053093;28;20227;-69
2023/05/08 01:02:04;;;;;;;0.95;0.80;;;15.00;99.90;;;;;;5053084;28;20246;-69
2023/05/08 01:04:34;;;;;;;1.60;1.50;;;15.00;99.90;;;;;;5053037;28;20215;-69
2023/05/08 01:07:03;;;;;;;1.52;1.42;;;15.10;99.90;;;;;;5052595;28;20223;-69
2023/05/08 01:09:31;;;;;;;1.17;1.08;;;15.10;99.90;;;;;;5052474;28;20228;-69
2023/05/08 01:12:08;;;;;;;1.00;1.00;;;15.20;99.90;;;;;;5052844;28;20291;-69
2023/05/08 01:14:45;;;;;;;1.00;0.88;;;15.10;99.90;;;;;;5052790;28;20211;-69
2023/05/08 01:17:19;;;;;;;1.20;1.10;;;15.10;99.90;;;;;;5049416;28;20310;-69
2023/05/08 01:20:02;;;;;;;1.58;1.25;;;15.10;99.90;;;;;;5052908;28;20220;-69
2023/05/08 01:22:53;;;;;;;1.40;1.02;;;15.20;99.90;;;;;;5060890;28;20245;-69
2023/05/08 01:25:56;;;;;;;1.42;1.33;;;15.10;99.90;;;;;;5055153;28;20637;-69
2023/05/08 01:28:53;;;;;;;2.72;1.50;;;15.00;99.90;;;;;;5052523;28;20266;-69
2023/05/08 01:31:26;;;;;;;2.75;2.10;;;15.00;99.90;;;;;;5052171;28;20697;-69
2023/05/08 01:34:03;;;;;;;1.20;1.10;;;14.90;99.90;;;;;;5052484;28;20204;-67
2023/05/08 01:36:37;;;;;;;1.40;1.15;;;14.90;99.90;;;;;;5052288;28;20860;-68
2023/05/08 01:39:12;;;;;;;1.70;1.60;;;14.90;99.90;;;;;;5052141;28;20262;-68
2023/05/08 01:41:46;;;;;;;1.75;1.42;;;14.80;99.90;;;;;;5044362;28;20638;-68
2023/05/08 01:44:18;;;;;;;1.50;1.40;;;14.80;99.90;;;;;;5052321;28;20299;-68
2023/05/08 01:46:49;;;;;;;1.30;1.17;;;14.70;99.90;;;;;;5052256;28;20283;-69
2023/05/08 01:49:25;;;;;;;1.77;1.60;;;14.60;99.90;;;;;;5052006;28;20230;-69
2023/05/08 01:51:58;;;;;;;1.25;1.15;;;14.60;99.90;;;;;;5060497;28;20312;-69
2023/05/08 01:54:30;;;;;;;1.40;1.20;;;14.50;99.90;;;;;;5052075;28;20208;-68
2023/05/08 01:57:00;;;;;;;1.45;1.13;;;14.50;99.90;;;;;;5052252;28;20299;-68
2023/05/08 01:59:30;;;;;;;1.88;1.65;;;14.50;99.90;;;;;;5051552;28;20230;-69
2023/05/08 02:02:00;;;;;;;2.83;1.88;;;14.50;99.90;;;;;;5051645;28;20287;-68
2023/05/08 02:04:30;;;;;;;2.10;1.90;;;14.60;99.90;;;;;;5052189;28;20203;-68
2023/05/08 02:07:00;;;;;;;0.77;0.73;;;14.60;99.90;;;;;;5052143;28;20207;-67
2023/05/08 02:09:29;;;;;;;1.52;1.40;;;14.60;99.90;;;;;;5042143;28;20251;-67
2023/05/08 02:11:58;;;;;;;1.35;1.25;;;14.60;99.90;;;;;;5045293;28;20224;-68
2023/05/08 02:14:28;;;;;;;1.88;1.73;;;14.60;99.90;;;;;;5048924;28;20611;-68
2023/05/08 02:16:59;;;;;;;1.25;1.15;;;14.60;99.90;;;;;;5045633;28;20653;-68
2023/05/08 02:19:31;;;;;;;1.20;1.10;;;14.60;99.90;;;;;;5050106;28;20277;-67
2023/05/08 02:22:00;;;;;;;1.23;1.05;;;14.50;99.90;;;;;;5054747;28;20286;-67
2023/05/08 02:24:30;;;;;;;1.50;1.40;;;14.50;99.90;;;;;;5049863;28;20192;-68
2023/05/08 02:26:59;;;;;;;1.50;1.40;;;14.50;99.90;;;;;;5047573;28;20726;-66
2023/05/08 02:29:28;;;;;;;2.30;1.70;;;14.50;99.90;;;;;;5043583;28;20310;-66
2023/05/08 02:31:57;;;;;;;1.85;1.50;;;14.50;99.90;;;;;;5049050;28;20292;-66
2023/05/08 02:34:26;;;;;;;1.50;1.40;;;14.50;99.90;;;;;;5048373;28;20208;-69
2023/05/08 02:36:57;;;;;;;1.63;1.52;;;14.50;99.90;;;;;;5047578;28;20697;-69
2023/05/08 02:39:28;;;;;;;0.70;0.65;;;14.40;99.90;;;;;;5045020;28;20710;-69
2023/05/08 02:41:56;;;;;;;1.25;1.15;;;14.40;99.90;;;;;;5045409;28;20262;-68
2023/05/08 02:44:24;;;;;;;1.70;1.60;;;14.30;99.90;;;;;;5048461;28;20645;-68
2023/05/08 02:46:56;;;;;;;0.98;0.88;;;14.30;99.90;;;;;;5046665;28;20228;-71
2023/05/08 02:49:31;;;;;;;0.80;0.80;;;14.20;99.90;;;;;;5041405;28;20299;-70
2023/05/08 02:52:08;;;;;;;1.92;1.83;;;14.20;99.90;;;;;;5041545;28;20298;-70
2023/05/08 02:54:42;;;;;;;1.50;1.35;;;14.20;99.90;;;;;;5048176;28;20227;-70
2023/05/08 02:57:18;;;;;;;1.20;1.10;;;14.20;99.90;;;;;;5040289;28;20209;-70
2023/05/08 02:59:52;;;;;;;1.00;0.90;;;14.30;99.90;;;;;;5038084;28;20225;-70
2023/05/08 03:02:32;;;;;;;1.35;1.17;;;14.30;99.90;;;;;;5048156;28;20756;-70
2023/05/08 03:05:06;;;;;;;1.52;1.10;;;14.30;99.90;;;;;;5049048;28;20207;-68
2023/05/08 03:07:40;;;;;;;1.50;1.27;;;14.30;99.90;;;;;;5038882;28;20216;-68
2023/05/08 03:10:14;;;;;;;1.50;1.40;;;14.30;99.90;;;;;;5043124;28;20235;-69
2023/05/08 03:12:46;;;;;;;1.45;1.02;;;14.30;99.90;;;;;;5055864;28;20203;-69
2023/05/08 03:15:23;;;;;;;1.73;1.63;;;14.20;99.90;;;;;;5052776;28;20210;-68
2023/05/08 03:17:55;;;;;;;2.08;1.70;;;14.10;99.90;;;;;;5041189;28;20299;-69
2023/05/08 03:20:26;;;;;;;1.25;1.15;;;14.10;99.90;;;;;;5045954;28;20615;-68
2023/05/08 03:22:56;;;;;;;1.42;1.33;;;14.00;99.90;;;;;;5043635;28;20231;-69
2023/05/08 03:25:25;;;;;;;1.48;1.38;;;14.00;99.90;;;;;;5045586;28;20646;-68
2023/05/08 03:27:53;;;;;;;1.98;1.00;;;14.10;99.90;;;;;;5044614;28;20279;-68
2023/05/08 03:30:22;;;;;;;1.60;1.20;;;14.00;99.90;;;;;;5045888;28;20200;-67
2023/05/08 03:32:51;;;;;;;1.27;1.00;;;14.00;99.90;;;;;;5044533;28;20218;-67
2023/05/08 03:35:20;;;;;;;1.20;1.02;;;14.00;99.90;;;;;;5048026;28;20208;-67
2023/05/08 03:37:48;;;;;;;0.80;0.80;;;13.90;99.90;;;;;;5047612;28;20219;-67
2023/05/08 03:40:17;;;;;;;1.30;1.20;;;13.90;99.90;;;;;;5044949;28;20921;-67
2023/05/08 03:42:45;;;;;;;1.13;1.02;;;13.90;99.90;;;;;;5050095;28;20286;-67
2023/05/08 03:45:15;;;;;;;1.60;1.40;;;13.80;99.90;;;;;;5058765;28;20294;-67
2023/05/08 03:47:44;;;;;;;1.13;1.02;;;13.90;99.90;;;;;;5050414;28;20238;-67
2023/05/08 03:50:13;;;;;;;1.00;1.00;;;14.00;99.90;;;;;;5050135;28;20227;-70
2023/05/08 03:52:42;;;;;;;1.23;1.13;;;14.00;99.90;;;;;;5044549;28;20218;-70
2023/05/08 03:55:10;;;;;;;1.48;1.38;;;14.10;99.90;;;;;;5045955;28;20666;-70
2023/05/08 03:57:45;;;;;;;1.25;1.08;;;14.00;99.90;;;;;;5045902;28;20668;-70
2023/05/08 04:00:19;;;;;;;1.38;1.27;;;14.00;99.90;;;;;;5042775;28;20314;-70
2023/05/08 04:02:56;;;;;;;1.15;1.05;;;14.10;99.90;;;;;;5043535;28;20214;-70
2023/05/08 04:05:31;;;;;;;1.27;0.93;;;14.10;99.90;;;;;;5041435;28;20223;-71
2023/05/08 04:08:09;;;;;;;1.00;0.80;;;14.10;99.90;;;;;;5041223;28;20200;-71
2023/05/08 04:10:42;;;;;;;1.50;1.40;;;14.00;99.90;;;;;;5046190;28;20294;-71
2023/05/08 04:13:14;;;;;;;1.27;1.17;;;14.00;99.90;;;;;;5047557;28;20200;-71
2023/05/08 04:15:50;;;;;;;0.98;0.88;;;14.00;99.90;;;;;;5045408;28;20208;-71
2023/05/08 04:18:24;;;;;;;1.23;0.75;;;14.10;99.90;;;;;;5043719;28;20223;-69
2023/05/08 04:20:55;;;;;;;1.25;1.15;;;14.10;99.90;;;;;;5041662;28;20671;-69
2023/05/08 04:23:26;;;;;;;1.38;1.27;;;14.10;99.90;;;;;;5044280;28;20253;-71
2023/05/08 04:25:55;;;;;;;1.10;1.00;;;14.00;99.90;;;;;;5045425;28;20290;-70
2023/05/08 04:28:24;;;;;;;2.30;1.25;;;13.90;99.90;;;;;;5047571;28;20251;-69
2023/05/08 04:30:53;;;;;;;1.55;1.15;;;13.80;99.90;;;;;;5037597;28;20251;-70
2023/05/08 04:33:21;;;;;;;1.30;1.20;;;13.70;99.90;;;;;;5045988;28;20291;-72
2023/05/08 04:35:50;;;;;;;1.13;0.90;;;13.60;99.90;;;;;;5045466;28;20283;-72
2023/05/08 04:38:18;;;;;;;1.40;1.30;;;13.50;99.90;;;;;;5050278;28;20255;-72
2023/05/08 04:40:45;;;;;;;1.67;0.90;;;13.40;99.90;;;;;;5049969;28;20322;-71
2023/05/08 04:43:13;;;;;;;0.98;0.98;;;13.40;99.90;;;;;;5051696;28;20433;-71
2023/05/08 04:45:43;;;;;;;1.33;1.25;;;13.30;99.90;;;;;;5049571;28;20675;-72
2023/05/08 04:48:10;;;;;;;1.45;1.35;;;13.30;99.90;;;;;;5050038;28;20208;-71
2023/05/08 04:50:39;;;;;;;1.25;1.15;;;13.20;99.90;;;;;;5046799;28;20211;-71
2023/05/08 04:53:06;;;;;;;1.90;1.10;;;13.20;99.90;;;;;;5045794;28;20245;-72
2023/05/08 04:55:34;;;;;;;1.63;1.52;;;13.10;99.90;;;;;;5047065;28;20291;-72
2023/05/08 04:58:02;;;;;;;1.67;1.55;;;13.10;99.90;;;;;;5049754;28;20220;-72
2023/05/08 05:00:30;;;;;;;2.55;1.65;;;13.10;99.90;;;;;;5050122;28;20286;-72
2023/05/08 05:02:59;;;;;;;1.27;1.17;;;13.00;99.90;;;;;;5049431;28;20204;-72
2023/05/08 05:05:27;;;;;;;2.92;2.15;;;13.00;99.90;;;;;;5048133;28;20227;-72
2023/05/08 05:07:55;;;;;;;3.55;2.40;;;13.00;99.90;;;;;;5045791;28;20283;-72
2023/05/08 05:10:23;;;;;;;1.52;1.42;;;13.00;99.90;;;;;;5048806;28;20214;-72
2023/05/08 05:12:51;;;;;;;1.50;1.40;;;13.00;99.90;;;;;;5054322;28;20363;-72
2023/05/08 05:15:19;;;;;;;1.48;1.38;;;12.90;99.90;;;;;;5049228;28;20257;-71
2023/05/08 05:17:47;;;;;;;1.60;1.50;;;12.90;99.90;;;;;;5049466;28;20222;-72
2023/05/08 05:20:16;;;;;;;1.33;1.23;;;12.90;99.90;;;;;;5041871;28;20223;-72
2023/05/08 05:22:44;;;;;;;1.95;1.42;;;12.90;99.90;;;;;;5051132;28;20662;-72
2023/05/08 05:25:12;;;;;;;2.85;1.40;;;12.90;99.90;;;;;;5046930;28;20242;-71
2023/05/08 05:27:40;;;;;;;1.85;1.75;;;12.90;99.90;;;;;;5046666;28;20204;-72
2023/05/08 05:30:09;;;;;;;1.95;1.80;;;12.90;99.90;;;;;;5043861;28;20778;-72
2023/05/08 05:32:37;;;;;;;1.77;1.67;;;12.90;99.90;;;;;;5047703;28;20209;-72
2023/05/08 05:35:06;;;;;;;1.80;1.65;;;13.00;99.90;;;;;;5041806;28;20216;-72
2023/05/08 05:37:35;;;;;;;1.38;1.27;;;13.00;99.90;;;;;;5047306;28;20322;-72
2023/05/08 05:40:04;;;;;;;2.80;1.77;;;13.00;99.90;;;;;;5041315;28;20654;-72
2023/05/08 05:42:32;;;;;;;1.58;1.45;;;13.00;99.90;;;;;;5049442;28;20196;-72
2023/05/08 05:45:00;;;;;;;2.08;1.33;;;13.10;99.90;;;;;;5046763;28;20326;-72
2023/05/08 05:47:28;;;;;;;1.63;1.52;;;13.10;99.90;;;;;;5044768;28;20672;-73
2023/05/08 05:49:57;;;;;;;2.45;2.25;;;13.20;99.90;;;;;;5045781;28;20220;-72
2023/05/08 05:52:25;;;;;;;2.13;1.92;;;13.20;99.90;;;;;;5045880;28;20218;-72
2023/05/08 05:54:54;;;;;;;1.25;1.15;;;13.20;99.90;;;;;;5048097;28;20232;-72
2023/05/08 05:57:22;;;;;;;1.50;1.40;;;13.20;99.90;;;;;;5049340;28;20232;-72
2023/05/08 05:59:50;;;;;;;1.80;1.70;;;13.20;99.90;;;;;;5046527;28;20307;-72
2023/05/08 06:02:21;;;;;;;1.65;1.55;;;13.20;99.90;;;;;;5043828;28;20689;-72
2023/05/08 06:04:51;;;;;;;1.63;1.52;;;13.20;99.90;;;;;;5046211;28;20243;-72
2023/05/08 06:07:19;;;;;;;1.55;1.45;;;13.20;99.90;;;;;;5051054;28;20295;-72
2023/05/08 06:09:49;;;;;;;1.92;1.83;;;13.20;99.90;;;;;;5050485;28;20293;-72
2023/05/08 06:12:19;;;;;;;1.20;1.10;;;13.30;99.90;;;;;;5050389;28;20721;-71
2023/05/08 06:14:47;;;;;;;1.40;1.30;;;13.30;99.90;;;;;;5047633;28;20669;-72
2023/05/08 06:17:15;;;;;;;2.08;1.73;;;13.40;99.90;;;;;;5036193;28;20286;-70
2023/05/08 06:19:43;;;;;;;2.15;1.80;;;13.40;99.90;;;;;;5050454;28;20235;-70
2023/05/08 06:22:10;;;;;;;2.42;2.17;;;13.50;99.90;;;;;;5049131;28;20210;-71
2023/05/08 06:24:38;;;;;;;1.92;1.73;;;13.40;99.90;;;;;;5047402;28;20646;-72
2023/05/08 06:27:06;;;;;;;2.92;1.27;;;13.50;99.90;;;;;;5048047;28;20705;-71
2023/05/08 06:29:35;;;;;;;1.65;1.38;;;13.40;99.90;;;;;;5052360;28;20228;-72
2023/05/08 06:32:03;;;;;;;1.65;1.55;;;13.40;99.90;;;;;;5049728;28;20627;-72
2023/05/08 06:34:31;;;;;;;1.63;1.52;;;13.50;99.90;;;;;;5049019;28;20210;-72
2023/05/08 06:36:59;;;;;;;1.92;1.55;;;13.50;99.90;;;;;;5039271;28;20659;-71
2023/05/08 06:39:27;;;;;;;1.65;1.17;;;13.40;99.90;;;;;;5019292;22;1218586;-64
2023/05/08 06:41:55;;;;;;;1.67;1.45;;;13.30;99.90;;;;;;5040453;28;20291;-65
2023/05/08 06:44:23;;;;;;;1.80;1.20;;;13.40;99.90;;;;;;5031414;28;20212;-65
2023/05/08 06:46:52;;;;;;;1.85;1.75;;;13.40;99.90;;;;;;5050435;28;20204;-64
2023/05/08 06:49:20;;;;;;;2.75;1.50;;;13.50;99.90;;;;;;5051408;28;20229;-64
2023/05/08 06:51:48;;;;;;;1.85;1.17;;;13.40;99.90;;;;;;5050894;28;20235;-64
2023/05/08 06:54:16;;;;;;;1.20;1.10;;;13.40;99.90;;;;;;5047343;28;20299;-64
2023/05/08 06:56:44;;;;;;;1.52;1.42;;;13.50;99.90;;;;;;5038501;28;20296;-64
2023/05/08 06:59:11;;;;;;;1.25;1.17;;;13.50;99.90;;;;;;5050934;28;20226;-64
2023/05/08 07:01:40;;;;;;;1.23;1.13;;;13.50;99.90;;;;;;5050746;28;20231;-64
2023/05/08 07:04:09;;;;;;;0.85;0.80;;;13.60;99.90;;;;;;5051153;28;20301;-65
2023/05/08 07:06:37;;;;;;;1.98;1.50;;;13.60;99.90;;;;;;5050948;28;20207;-64
2023/05/08 07:09:05;;;;;;;2.05;1.85;;;13.60;99.90;;;;;;5050901;28;20224;-65
2023/05/08 07:11:33;;;;;;;1.85;1.48;;;13.60;99.90;;;;;;5040377;28;20722;-64
2023/05/08 07:14:01;;;;;;;1.95;1.75;;;13.70;99.90;;;;;;5029312;28;20205;-63
2023/05/08 07:16:29;;;;;;;2.15;1.70;;;13.80;99.90;;;;;;5037560;28;20596;-64
2023/05/08 07:18:57;;;;;;;1.77;1.67;;;13.80;99.90;;;;;;5036044;28;20243;-64
2023/05/08 07:21:26;;;;;;;1.98;1.75;;;13.80;99.90;;;;;;5050421;28;20223;-64
2023/05/08 07:23:54;;;;;;;2.97;2.38;;;13.80;99.90;;;;;;5050706;28;20215;-64
2023/05/08 07:26:22;;;;;;;1.38;1.27;;;13.80;99.90;;;;;;5042552;28;20299;-64
2023/05/08 07:28:52;;;;;;;1.70;1.35;;;13.90;99.90;;;;;;5048355;28;20330;-64
2023/05/08 07:31:20;;;;;;;1.20;1.10;;;13.90;99.90;;;;;;5050391;28;20231;-64
2023/05/08 07:33:48;;;;;;;2.00;1.80;;;13.90;99.90;;;;;;5050572;28;20203;-65
2023/05/08 07:36:16;;;;;;;1.50;1.10;;;13.90;99.90;;;;;;5051006;28;20279;-64
2023/05/08 07:38:45;;;;;;;1.40;1.23;;;14.00;99.90;;;;;;5050030;28;20334;-64
2023/05/08 07:41:13;;;;;;;1.23;1.13;;;14.00;99.90;;;;;;5036623;28;20246;-64
2023/05/08 07:43:42;;;;;;;1.75;1.10;;;14.10;99.90;;;;;;5025251;28;20673;-65
2023/05/08 07:46:16;;;;;;;1.02;1.00;;;14.10;99.90;;;;;;5043867;28;20599;-65
2023/05/08 07:48:44;;;;;;;1.92;1.00;;;14.10;99.90;;;;;;5050496;28;20276;-64
2023/05/08 07:51:12;;;;;;;2.28;1.70;;;14.20;99.90;;;;;;5050200;28;20659;-65
2023/05/08 07:53:40;;;;;;;1.40;1.25;;;14.20;99.90;;;;;;5050238;28;20218;-65
2023/05/08 07:56:09;;;;;;;1.52;1.42;;;14.20;99.90;;;;;;5036975;28;20219;-65
2023/05/08 07:58:37;;;;;;;1.33;1.05;;;14.40;99.90;;;;;;5050399;28;20266;-64
2023/05/08 08:01:05;;;;;;;1.25;1.15;;;14.40;99.90;;;;;;5050366;28;20691;-64
2023/05/08 08:03:33;;;;;;;1.35;1.25;;;14.50;99.90;;;;;;5050336;28;20576;-64
2023/05/08 08:06:01;;;;;;;1.20;0.90;;;14.50;99.90;;;;;;5034190;28;20204;-64
2023/05/08 08:08:29;;;;;;;1.45;1.35;;;14.40;99.90;;;;;;5050459;28;20283;-64
2023/05/08 08:10:57;;;;;;;2.00;1.90;;;14.50;99.90;;;;;;5042232;28;20234;-64
2023/05/08 08:13:26;;;;;;;1.02;0.93;;;14.50;99.90;;;;;;5037549;28;20221;-65
2023/05/08 08:15:55;;;;;;;1.30;1.20;;;14.40;99.90;;;;;;5053258;28;20287;-65
2023/05/08 08:18:23;;;;;;;1.73;1.63;;;14.50;99.90;;;;;;5053934;28;20223;-64
2023/05/08 08:20:50;;;;;;;1.65;1.38;;;14.50;99.90;;;;;;5053865;28;20220;-64
2023/05/08 08:23:18;;;;;;;1.10;1.00;;;14.60;99.90;;;;;;5054090;28;20218;-65
2023/05/08 08:25:46;;;;;;;1.65;1.55;;;14.70;99.90;;;;;;5054093;28;20246;-65
2023/05/08 08:28:14;;;;;;;2.25;1.42;;;14.70;99.90;;;;;;5054073;28;20295;-65
2023/05/08 08:30:43;;;;;;;0.82;0.80;;;14.80;99.90;;;;;;5037875;28;20264;-65
2023/05/08 08:33:11;;;;;;;1.88;1.77;;;14.90;99.90;;;;;;5053874;28;20204;-64
2023/05/08 08:35:39;;;;;;;0.77;0.73;;;15.00;99.90;;;;;;5053815;28;20702;-64
2023/05/08 08:38:07;;;;;;;1.10;1.00;;;15.00;99.90;;;;;;5053914;28;20307;-65
2023/05/08 08:40:39;;;;;;;1.73;1.63;;;15.20;99.90;;;;;;5053376;28;20323;-64
2023/05/08 08:43:07;;;;;;;1.13;0.93;;;15.20;99.90;;;;;;5033104;28;20315;-64
2023/05/08 08:45:36;;;;;;;0.80;0.80;;;15.30;99.90;;;;;;5034918;28;20304;-65
2023/05/08 08:48:10;;;;;;;1.45;1.35;;;15.30;99.90;;;;;;5041846;28;20265;-64
2023/05/08 08:50:42;;;;;;;1.45;1.35;;;15.30;99.90;;;;;;5027265;28;20225;-64
2023/05/08 08:53:15;;;;;;;1.77;1.58;;;15.40;99.90;;;;;;5026087;28;20292;-65
2023/05/08 08:55:48;;;;;;;1.00;0.90;;;15.40;99.90;;;;;;5033446;28;20243;-65
2023/05/08 08:58:21;;;;;;;0.80;0.73;;;15.50;99.90;;;;;;5033363;28;20728;-64
2023/05/08 09:00:50;;;;;;;1.95;1.55;;;15.50;99.90;;;;;;5033113;28;20259;-65
2023/05/08 09:03:19;;;;;;;2.35;1.50;;;15.50;99.90;;;;;;5033310;28;20209;-65
2023/05/08 09:05:48;;;;;;;1.40;1.02;;;15.60;99.90;;;;;;5033391;28;20214;-65
2023/05/08 09:08:17;;;;;;;1.00;0.80;;;15.60;99.90;;;;;;5032933;28;20679;-64
2023/05/08 09:10:46;;;;;;;2.15;2.05;;;15.60;99.90;;;;;;5041127;28;20670;-64
2023/05/08 09:13:14;;;;;;;1.10;0.90;;;15.50;99.90;;;;;;5029839;28;20713;-64
2023/05/08 09:15:44;;;;;;;0.85;0.82;;;15.50;99.90;;;;;;5033797;28;20259;-64
2023/05/08 09:18:12;;;;;;;1.15;0.77;;;15.50;99.90;;;;;;5053216;28;20220;-64
2023/05/08 09:20:43;;;;;;;1.30;1.20;;;15.30;99.90;;;;;;5042055;28;20740;-64
2023/05/08 09:23:12;;;;;;;1.42;0.95;;;15.10;99.90;;;;;;5048482;28;20227;-64
2023/05/08 09:25:44;;;;;;;1.48;1.10;;;15.10;99.90;;;;;;5053039;28;20674;-64
2023/05/08 09:28:16;;;;;;;1.00;0.90;;;15.10;99.90;;;;;;5038217;28;20204;-65
2023/05/08 09:30:52;;;;;;;0.80;0.80;;;15.20;99.90;;;;;;5052769;28;20217;-65
2023/05/08 09:33:21;;;;;;;1.13;1.02;;;15.20;99.90;;;;;;5052744;28;20640;-64
2023/05/08 09:35:50;;;;;;;1.23;1.13;;;15.30;99.90;;;;;;5052682;28;20203;-64
2023/05/08 09:38:35;;;;;;;1.60;1.23;;;15.30;99.90;;;;;;5052456;28;20231;-65
2023/05/08 09:41:08;;;;;;;1.50;0.80;;;15.40;99.90;;;;;;5042536;28;20228;-64
2023/05/08 09:43:36;;;;;;;1.17;1.08;;;15.40;99.90;;;;;;5038350;28;20204;-65
2023/05/08 09:46:21;;;;;;;0.90;0.70;;;15.40;99.90;;;;;;5035776;28;20226;-65
2023/05/08 09:48:50;;;;;;;1.90;1.75;;;15.40;99.90;;;;;;5052502;28;20235;-65
2023/05/08 09:51:21;;;;;;;1.38;1.27;;;15.40;99.90;;;;;;5052378;28;20283;-65
2023/05/08 09:53:51;;;;;;;1.85;1.67;;;15.40;99.90;;;;;;5052137;28;20230;-64
2023/05/08 09:56:35;;;;;;;2.20;1.48;;;15.50;99.90;;;;;;5043344;28;20232;-65
2023/05/08 09:59:21;;;;;;;1.63;1.35;;;15.40;99.90;;;;;;5052171;28;20228;-64
2023/05/08 10:01:49;;;;;;;1.30;1.20;;;15.40;99.90;;;;;;5052034;28;20322;-64
2023/05/08 10:04:17;;;;;;;3.30;1.50;;;15.50;99.90;;;;;;5052230;28;20655;-64
2023/05/08 10:06:57;;;;;;;1.40;1.30;;;15.40;99.90;;;;;;5052125;28;20204;-64
2023/05/08 10:09:25;;;;;;;1.65;1.48;;;15.30;99.90;;;;;;5052051;28;20223;-64
2023/05/08 10:12:06;;;;;;;1.83;1.50;;;15.40;99.90;;;;;;5051896;28;20273;-66
2023/05/08 10:14:34;;;;;;;2.00;1.67;;;15.40;99.90;;;;;;5027739;28;20291;-64
2023/05/08 10:17:09;;;;;;;2.00;1.20;;;15.40;99.90;;;;;;5042077;28;20218;-64
2023/05/08 10:19:42;;;;;;;1.40;1.30;;;15.40;99.90;;;;;;5052041;28;20698;-64
2023/05/08 10:22:12;;;;;;;0.90;0.80;;;15.40;99.90;;;;;;5035693;28;20573;-64
2023/05/08 10:24:41;;;;;;;1.48;1.15;;;15.50;99.90;;;;;;5052041;28;20238;-64
2023/05/08 10:27:17;;;;;;;1.40;1.27;;;15.60;99.90;;;;;;5035584;28;20291;-64
2023/05/08 10:29:52;;;;;;;1.58;0.98;;;15.90;99.90;;;;;;5051637;28;20640;-64
2023/05/08 10:32:22;;;;;;;1.10;0.85;;;15.80;99.90;;;;;;5051944;28;20586;-64
2023/05/08 10:34:53;;;;;;;1.40;1.30;;;15.90;99.90;;;;;;5046332;28;20208;-64
2023/05/08 10:37:22;;;;;;;1.33;0.98;;;15.90;99.90;;;;;;5051715;28;20250;-65
2023/05/08 10:39:54;;;;;;;1.35;1.25;;;15.70;99.90;;;;;;5051129;28;20347;-65
2023/05/08 10:42:22;;;;;;;1.65;1.55;;;15.70;99.90;;;;;;5050039;28;20765;-64
2023/05/08 10:44:51;;;;;;;1.08;0.98;;;15.80;99.90;;;;;;5028551;28;20236;-65
2023/05/08 10:47:27;;;;;;;1.05;0.95;;;15.90;99.90;;;;;;5044685;28;20265;-64
2023/05/08 10:50:04;;;;;;;1.98;1.02;;;16.10;99.90;;;;;;5046343;28;20679;-65
2023/05/08 10:52:39;;;;;;;1.45;1.35;;;16.30;99.90;;;;;;5051436;28;20227;-64
2023/05/08 10:55:19;;;;;;;1.30;1.17;;;16.40;99.90;;;;;;5051122;28;20234;-65
2023/05/08 10:58:06;;;;;;;1.25;1.15;;;16.40;99.90;;;;;;5051146;28;20207;-64
2023/05/08 11:01:13;;;;;;;2.58;2.28;;;16.40;99.90;;;;;;5051239;28;20224;-65
2023/05/08 11:03:44;;;;;;;1.38;1.15;;;16.40;99.90;;;;;;5042838;28;20322;-64
2023/05/08 11:06:12;;;;;;;1.08;1.02;;;16.40;99.90;;;;;;5043187;28;20208;-64
2023/05/08 11:08:47;;;;;;;1.67;1.58;;;16.20;99.90;;;;;;5051197;28;20316;-64
2023/05/08 11:11:26;;;;;;;1.83;1.73;;;16.20;99.90;;;;;;5036853;28;20286;-65
2023/05/08 11:13:59;;;;;;;1.70;1.60;;;16.20;99.90;;;;;;5033014;28;20236;-65
2023/05/08 11:17:04;;;;;;;1.52;1.42;;;16.20;99.90;;;;;;5036700;28;20291;-64
2023/05/08 11:19:32;;;;;;;0.95;0.95;;;16.30;99.90;;;;;;5040248;28;20215;-64
2023/05/08 11:22:31;;;;;;;1.48;1.25;;;16.30;99.90;;;;;;5050602;28;20226;-64
2023/05/08 11:25:04;;;;;;;2.35;2.17;;;16.40;99.90;;;;;;4969504;28;20298;-65
2023/05/08 11:27:37;;;;;;;2.40;1.20;;;16.40;99.90;;;;;;5031960;28;20212;-65
2023/05/08 11:30:27;;;;;;;1.73;1.25;;;16.50;99.90;;;;;;5047859;28;20321;-64
2023/05/08 11:33:11;;;;;;;0.90;0.80;;;16.60;99.90;;;;;;5045982;28;20208;-64
2023/05/08 11:35:41;;;;;;;1.50;1.20;;;16.70;99.90;;;;;;5050855;28;20689;-64
2023/05/08 11:38:15;;;;;;;2.05;1.92;;;16.80;99.90;;;;;;5050693;28;20625;-64
2023/05/08 11:40:56;;;;;;;1.98;1.88;;;16.90;99.90;;;;;;5011064;28;20295;-64
2023/05/08 11:44:01;;;;;;;0.80;0.80;;;16.90;99.90;;;;;;4986415;28;20567;-65
2023/05/08 11:46:41;;;;;;;1.50;1.35;;;17.00;99.90;;;;;;4976082;28;20236;-65
2023/05/08 11:49:15;;;;;;;1.50;1.40;;;17.00;99.90;;;;;;5014968;28;20233;-64
2023/05/08 11:51:45;;;;;;;2.13;1.88;;;17.20;99.90;;;;;;5015018;28;20211;-65
2023/05/08 11:54:15;;;;;;;1.35;1.17;;;17.10;99.90;;;;;;5014924;28;20201;-64
2023/05/08 11:56:46;;;;;;;1.60;0.75;;;17.10;99.90;;;;;;5010483;28;20672;-66
2023/05/08 11:59:15;;;;;;;1.30;1.00;;;17.20;99.90;;;;;;4999055;28;20228;-65
2023/05/08 12:01:43;;;;;;;1.52;1.42;;;17.10;99.90;;;;;;5014828;28;20209;-65
2023/05/08 12:04:27;;;;;;;1.05;0.98;;;17.20;99.90;;;;;;5002267;28;20224;-64
2023/05/08 12:06:58;;;;;;;0.98;0.88;;;17.30;99.90;;;;;;5014741;28;20208;-65
2023/05/08 12:09:26;;;;;;;1.45;1.35;;;17.40;99.90;;;;;;5014633;28;20279;-65
2023/05/08 12:11:58;;;;;;;1.33;1.25;;;17.50;99.90;;;;;;5014303;28;20205;-65
2023/05/08 12:14:26;;;;;;;1.55;1.40;;;17.60;99.90;;;;;;4992442;28;20236;-65
2023/05/08 12:16:53;;;;;;;1.27;1.17;;;17.70;99.90;;;;;;4999273;28;20217;-64
2023/05/08 12:19:21;;;;;;;1.80;1.25;;;17.70;99.90;;;;;;5014625;28;20287;-65
2023/05/08 12:21:50;;;;;;;1.40;1.30;;;17.60;99.90;;;;;;5014458;28;20239;-65
2023/05/08 12:24:21;;;;;;;3.10;2.30;;;17.60;99.90;;;;;;5014333;28;20247;-65
2023/05/08 12:26:53;;;;;;;1.00;0.90;;;17.60;99.90;;;;;;5014410;28;20292;-65
2023/05/08 12:29:22;;;;;;;1.30;1.20;;;17.50;99.90;;;;;;4998234;28;20225;-64
2023/05/08 12:31:52;;;;;;;0.90;0.85;;;17.50;99.90;;;;;;5010838;28;20212;-65
2023/05/08 12:34:20;;;;;;;1.17;1.02;;;17.50;99.90;;;;;;5014207;28;20683;-65
2023/05/08 12:36:50;;;;;;;1.60;1.15;;;17.50;99.90;;;;;;5014412;28;20292;-64
2023/05/08 12:39:18;;;;;;;0.90;0.82;;;17.60;99.90;;;;;;5030807;28;20275;-65
2023/05/08 12:41:47;;;;;;;1.00;1.00;;;17.70;99.90;;;;;;5053822;28;20290;-65
2023/05/08 12:44:19;;;;;;;1.38;1.25;;;17.60;99.90;;;;;;5030765;28;20264;-65
2023/05/08 12:46:50;;;;;;;2.72;2.15;;;17.80;99.90;;;;;;5037524;28;20239;-65
2023/05/08 12:49:27;;;;;;;1.52;1.40;;;17.90;99.90;;;;;;5038209;28;20227;-65
2023/05/08 12:52:06;;;;;;;0.75;0.73;;;18.00;99.90;;;;;;5053219;28;20212;-65
2023/05/08 12:54:38;;;;;;;1.35;1.25;;;18.10;99.90;;;;;;5053532;28;20199;-65
2023/05/08 12:57:11;;;;;;;1.90;1.80;;;18.10;99.90;;;;;;5052994;28;20239;-65
2023/05/08 12:59:39;;;;;;;1.20;1.10;;;18.20;99.90;;;;;;5053593;28;20231;-65
2023/05/08 13:02:14;;;;;;;1.60;1.50;;;18.20;99.90;;;;;;5051985;28;20265;-65
2023/05/08 13:04:43;;;;;;;2.03;1.02;;;18.20;99.90;;;;;;5053310;28;20223;-65
2023/05/08 13:07:11;;;;;;;0.90;0.90;;;18.40;99.90;;;;;;5053239;28;20654;-64